Time;durP1;ratioP1;P1;durP2;ratioP2;P2;SDS_P1;SDS_P2;PMS_P1;PMS_P2;Temp;Humidity;BMP_temperature;BMP_pressure;BME280_temperature;BME280_humidity;BME280_pressure;Samples;Min_cycle;Max_cycle;Signal;HPM_P1;HPM_P2
2023/10/08 00:01:14;;;;;;;0.40;0.40;;;;;;;;;;6250822;23;20406;-78
2023/10/08 00:03:49;;;;;;;0.50;0.50;;;10.80;99.90;;;;;;6251041;23;20488;-79
2023/10/08 00:06:20;;;;;;;0.77;0.77;;;10.80;99.90;;;;;;6251147;23;20199;-79
2023/10/08 00:08:48;;;;;;;0.40;0.40;;;10.70;99.90;;;;;;6250586;23;20189;-78
2023/10/08 00:11:16;;;;;;;0.40;0.30;;;;;;;;;;6250535;23;20183;-78
2023/10/08 00:13:44;;;;;;;0.40;0.30;;;;;;;;;;6249768;23;20210;-81
2023/10/08 00:16:16;;;;;;;0.40;0.40;;;10.60;99.90;;;;;;6250590;23;20211;-79
2023/10/08 00:18:51;;;;;;;0.80;0.80;;;10.60;99.90;;;;;;6250671;23;20168;-81
2023/10/08 00:21:26;;;;;;;0.40;0.32;;;10.60;99.90;;;;;;6223733;23;20180;-78
2023/10/08 00:23:58;;;;;;;1.55;1.30;;;10.70;99.90;;;;;;6249738;23;20499;-79
2023/10/08 00:26:29;;;;;;;0.40;0.40;;;10.70;99.90;;;;;;6250598;23;20218;-79
2023/10/08 00:29:15;;;;;;;0.40;0.40;;;10.30;99.90;;;;;;6253915;23;20167;-77
2023/10/08 00:31:45;;;;;;;0.40;0.40;;;10.50;99.90;;;;;;6258904;23;20175;-80
2023/10/08 00:34:13;;;;;;;0.40;0.40;;;;;;;;;;6258590;23;20195;-82
2023/10/08 00:36:41;;;;;;;0.40;0.40;;;10.70;99.90;;;;;;6253346;23;20372;-78
2023/10/08 00:39:14;;;;;;;0.40;0.40;;;10.50;99.90;;;;;;6250023;23;20190;-78
2023/10/08 00:41:43;;;;;;;0.40;0.30;;;10.90;99.90;;;;;;6223197;23;20225;-79
2023/10/08 00:44:29;;;;;;;0.40;0.40;;;10.30;99.90;;;;;;6249157;23;20207;-80
2023/10/08 00:47:00;;;;;;;0.40;0.38;;;10.60;99.90;;;;;;6249299;23;20657;-78
2023/10/08 00:54:53;;;;;;;0.40;0.30;;;10.90;99.90;;;;;;6249975;23;20175;-75
2023/10/08 00:57:29;;;;;;;0.40;0.40;;;10.20;99.90;;;;;;6222528;23;20168;-79
2023/10/08 01:00:00;;;;;;;0.50;0.50;;;10.40;99.90;;;;;;6249626;23;20183;-78
2023/10/08 01:02:42;;;;;;;0.70;0.70;;;10.30;99.90;;;;;;6248384;23;20211;-78
2023/10/08 01:05:11;;;;;;;0.38;0.30;;;10.60;99.90;;;;;;6249405;23;20254;-80
2023/10/08 01:07:44;;;;;;;0.40;0.40;;;10.30;99.90;;;;;;6248930;23;20183;-83
2023/10/08 01:10:13;;;;;;;0.40;0.40;;;;;;;;;;6249489;23;20168;-78
2023/10/08 01:12:54;;;;;;;0.40;0.38;;;10.10;99.90;;;;;;6249678;23;20555;-78
2023/10/08 01:15:24;;;;;;;0.40;0.30;;;;;;;;;;6249112;23;20187;-79
2023/10/08 01:17:57;;;;;;;0.40;0.40;;;;;;;;;;6249583;23;20218;-77
2023/10/08 01:20:43;;;;;;;0.40;0.40;;;10.40;99.90;;;;;;6248886;23;20188;-76
2023/10/08 01:23:13;;;;;;;0.43;0.43;;;10.50;99.90;;;;;;6248830;23;20183;-82
2023/10/08 01:25:51;;;;;;;0.40;0.30;;;;;;;;;;6248855;23;20222;-77
2023/10/08 01:28:31;;;;;;;0.50;0.50;;;14.30;99.90;;;;;;6251356;23;20198;-82
2023/10/08 01:31:03;;;;;;;0.40;0.30;;;10.00;99.90;;;;;;6253756;23;20206;-81
2023/10/08 01:33:37;;;;;;;2.25;2.15;;;;;;;;;;6255442;23;20227;-84
2023/10/08 01:36:04;;;;;;;0.40;0.40;;;;;;;;;;6252907;23;20214;-82
2023/10/08 01:38:35;;;;;;;0.40;0.40;;;10.40;99.90;;;;;;6250128;23;20190;-82
2023/10/08 01:41:22;;;;;;;1.58;1.27;;;10.10;99.90;;;;;;6249982;23;20168;-80
2023/10/08 01:43:52;;;;;;;0.40;0.40;;;10.10;99.90;;;;;;6255699;23;20179;-77
2023/10/08 01:46:21;;;;;;;0.40;0.40;;;10.00;99.90;;;;;;6263938;22;20209;-78
2023/10/08 01:48:53;;;;;;;0.40;0.40;;;10.10;99.90;;;;;;6265868;23;20167;-80
2023/10/08 01:51:24;;;;;;;0.40;0.40;;;10.20;99.90;;;;;;6263066;23;20503;-79
2023/10/08 01:53:58;;;;;;;0.40;0.30;;;10.30;99.90;;;;;;6257678;23;20476;-80
2023/10/08 01:56:26;;;;;;;0.40;0.38;;;10.90;99.90;;;;;;6265520;23;20155;-80
2023/10/08 01:58:53;;;;;;;0.40;0.40;;;9.90;99.90;;;;;;6274445;23;20176;-79
2023/10/08 02:01:20;;;;;;;0.40;0.30;;;10.30;99.90;;;;;;6247983;23;20207;-80
2023/10/08 02:03:48;;;;;;;0.40;0.40;;;10.40;99.90;;;;;;6263506;23;20186;-80
2023/10/08 02:06:17;;;;;;;0.40;0.40;;;;;;;;;;6226208;23;20183;-78
2023/10/08 02:08:44;;;;;;;0.40;0.30;;;9.60;99.90;;;;;;6251079;23;20531;-80
2023/10/08 02:11:11;;;;;;;0.40;0.40;;;9.90;99.90;;;;;;6251178;23;20206;-80
2023/10/08 02:13:38;;;;;;;0.40;0.40;;;9.90;99.90;;;;;;6251138;23;20188;-80
2023/10/08 02:16:05;;;;;;;1.25;1.25;;;10.20;99.90;;;;;;6250567;23;20214;-77
2023/10/08 02:18:35;;;;;;;0.38;0.30;;;;;;;;;;6251546;23;20188;-79
2023/10/08 02:21:02;;;;;;;0.40;0.30;;;;;;;;;;6224756;23;20214;-76
2023/10/08 02:23:31;;;;;;;0.95;0.95;;;10.00;99.90;;;;;;6250309;23;20286;-78
2023/10/08 02:25:58;;;;;;;0.40;0.30;;;;;;;;;;6251028;23;20554;-81
2023/10/08 02:28:26;;;;;;;0.40;0.40;;;10.00;99.90;;;;;;6250821;23;20218;-81
2023/10/08 02:30:53;;;;;;;0.40;0.30;;;9.80;99.90;;;;;;6224575;23;20409;-84
2023/10/08 02:33:21;;;;;;;0.40;0.35;;;;;;;;;;6224521;23;20211;-79
2023/10/08 02:35:49;;;;;;;0.40;0.40;;;10.60;99.90;;;;;;6250743;23;20187;-79
2023/10/08 02:38:21;;;;;;;0.40;0.40;;;10.10;99.90;;;;;;6250605;23;20190;-81
2023/10/08 02:40:49;;;;;;;0.40;0.30;;;;;;;;;;6251290;23;20202;-81
2023/10/08 02:43:17;;;;;;;0.40;0.40;;;;;;;;;;6250441;23;20545;-81
2023/10/08 02:45:49;;;;;;;0.40;0.30;;;;;;;;;;6224302;23;20238;-80
2023/10/08 02:48:17;;;;;;;0.40;0.30;;;10.20;99.90;;;;;;6253130;23;20175;-80
2023/10/08 02:50:46;;;;;;;0.40;0.40;;;;;;;;;;6251514;23;20183;-82
2023/10/08 02:53:25;;;;;;;0.40;0.40;;;10.00;99.90;;;;;;6252276;23;20195;-79
2023/10/08 02:55:53;;;;;;;0.40;0.38;;;;;;;;;;6224846;23;20167;-82
2023/10/08 02:58:21;;;;;;;0.40;0.40;;;;;;;;;;6251211;23;20203;-79
2023/10/08 03:00:49;;;;;;;0.40;0.38;;;9.70;99.90;;;;;;6224558;23;20184;-80
2023/10/08 03:03:18;;;;;;;0.40;0.40;;;9.50;99.90;;;;;;6250311;23;20207;-78
2023/10/08 03:05:48;;;;;;;0.40;0.40;;;9.70;99.90;;;;;;6249433;23;20241;-80
2023/10/08 03:08:20;;;;;;;0.63;0.63;;;;;;;;;;6250188;23;20555;-79
2023/10/08 03:10:55;;;;;;;0.40;0.40;;;9.60;99.90;;;;;;6250461;23;20167;-80
2023/10/08 03:13:23;;;;;;;0.38;0.30;;;9.40;99.90;;;;;;6250315;23;20415;-79
2023/10/08 03:18:36;;;;;;;0.38;0.30;;;9.80;99.90;;;;;;6250823;23;20214;-81
2023/10/08 03:21:06;;;;;;;0.40;0.40;;;9.80;99.90;;;;;;6250466;23;20168;-81
2023/10/08 03:23:36;;;;;;;0.40;0.40;;;9.50;99.90;;;;;;6249985;23;20183;-79
2023/10/08 03:26:28;;;;;;;0.38;0.30;;;9.80;99.90;;;;;;6224341;23;20239;-82
2023/10/08 03:28:59;;;;;;;1.90;1.50;;;;;;;;;;6251085;23;20243;-79
2023/10/08 03:31:50;;;;;;;0.40;0.30;;;10.00;99.90;;;;;;6252136;23;20222;-81
2023/10/08 03:34:19;;;;;;;0.63;0.63;;;9.80;99.90;;;;;;6254210;23;20188;-82
2023/10/08 03:36:49;;;;;;;0.60;0.60;;;9.80;99.90;;;;;;6227705;23;20179;-79
2023/10/08 03:39:18;;;;;;;0.40;0.40;;;9.90;99.90;;;;;;6255219;23;20190;-81
2023/10/08 03:42:07;;;;;;;0.40;0.40;;;;;;;;;;6254520;23;20168;-82
2023/10/08 03:44:37;;;;;;;0.40;0.40;;;;;;;;;;6253208;23;20488;-79
2023/10/08 03:47:10;;;;;;;0.32;0.30;;;;;;;;;;6252686;23;20227;-80
2023/10/08 03:49:45;;;;;;;0.40;0.30;;;;;;;;;;6226076;23;20190;-78
2023/10/08 03:52:13;;;;;;;0.40;0.30;;;9.50;99.90;;;;;;6254357;23;20518;-84
2023/10/08 03:54:48;;;;;;;0.40;0.40;;;;;;;;;;6253996;23;20531;-81
2023/10/08 03:57:25;;;;;;;0.40;0.30;;;;;;;;;;6253061;23;20175;-79
2023/10/08 03:59:58;;;;;;;0.40;0.40;;;;;;;;;;6225854;23;20174;-79
2023/10/08 04:02:39;;;;;;;0.38;0.30;;;;;;;;;;6249992;23;20168;-83
2023/10/08 04:05:19;;;;;;;0.40;0.30;;;10.00;99.90;;;;;;6224559;23;20183;-82
2023/10/08 04:13:09;;;;;;;0.40;0.40;;;10.00;99.90;;;;;;6250070;23;20526;-79
2023/10/08 04:15:40;;;;;;;0.40;0.40;;;9.90;99.90;;;;;;6249644;23;20389;-78
2023/10/08 04:18:09;;;;;;;5.65;1.20;;;10.00;99.90;;;;;;6250054;23;20167;-78
2023/10/08 04:23:13;;;;;;;0.30;0.30;;;9.70;99.90;;;;;;6252737;23;20222;-77
2023/10/08 04:25:44;;;;;;;0.50;0.50;;;9.60;99.90;;;;;;6252553;23;20187;-79
2023/10/08 04:28:18;;;;;;;2.38;1.40;;;9.60;99.90;;;;;;6250593;23;20238;-78
2023/10/08 04:30:48;;;;;;;0.40;0.40;;;;;;;;;;6251928;23;20606;-78
2023/10/08 04:33:15;;;;;;;0.43;0.43;;;10.00;99.90;;;;;;6252282;23;20515;-78
2023/10/08 04:35:55;;;;;;;0.40;0.40;;;9.90;99.90;;;;;;6250036;23;20447;-79
2023/10/08 04:38:26;;;;;;;1.08;0.98;;;9.80;99.90;;;;;;6249733;23;20168;-79
2023/10/08 04:40:54;;;;;;;0.40;0.40;;;;;;;;;;6249374;23;20168;-80
2023/10/08 04:43:27;;;;;;;0.40;0.30;;;9.70;99.90;;;;;;6248976;23;20214;-78
2023/10/08 04:45:58;;;;;;;0.40;0.40;;;;;;;;;;6222416;23;20198;-79
2023/10/08 04:48:29;;;;;;;0.50;0.50;;;9.30;99.90;;;;;;6248563;23;20402;-78
2023/10/08 04:50:59;;;;;;;0.38;0.38;;;9.90;99.90;;;;;;6249304;23;20168;-78
2023/10/08 04:53:31;;;;;;;0.40;0.40;;;9.70;99.90;;;;;;6248215;23;20217;-79
2023/10/08 04:56:05;;;;;;;0.40;0.35;;;9.70;99.90;;;;;;6222403;23;20179;-77
2023/10/08 04:58:36;;;;;;;0.40;0.40;;;9.80;99.90;;;;;;6223184;23;20176;-78
2023/10/08 05:20:19;;;;;;;0.40;0.40;;;;;;;;;;6249861;23;20404;-82
2023/10/08 05:22:55;;;;;;;0.95;0.95;;;;;;;;;;6250359;23;20167;-80
2023/10/08 05:25:35;;;;;;;0.40;0.40;;;;;;;;;;6250181;23;20191;-79
2023/10/08 05:28:09;;;;;;;0.50;0.50;;;;;;;;;;6249352;23;20213;-80
2023/10/08 05:33:06;;;;;;;0.40;0.40;;;10.40;99.90;;;;;;6248504;23;20184;-78
2023/10/08 05:35:48;;;;;;;0.50;0.50;;;9.80;99.90;;;;;;6249201;23;20190;-80
2023/10/08 05:49:02;;;;;;;0.40;0.40;;;9.90;99.90;;;;;;6250199;23;20207;-78
2023/10/08 05:52:24;;;;;;;1.38;1.25;;;9.90;99.90;;;;;;6223722;23;20160;-83
2023/10/08 06:00:17;;;;;;;0.88;0.88;;;;;;;;;;6258295;22;20219;-78
2023/10/08 06:03:00;;;;;;;1.38;1.30;;;9.80;99.90;;;;;;6253374;23;20264;-85
2023/10/08 06:05:32;;;;;;;1.63;1.55;;;9.90;99.90;;;;;;6247068;23;20198;-78
2023/10/08 06:08:12;;;;;;;0.50;0.50;;;9.70;99.90;;;;;;6249752;23;20202;-87
2023/10/08 06:13:09;;;;;;;0.50;0.50;;;;;;;;;;6260555;23;20214;-83
2023/10/08 06:18:29;;;;;;;3.83;3.50;;;9.80;99.90;;;;;;6271608;22;20166;-84
2023/10/08 06:20:59;;;;;;;6.18;2.15;;;10.20;99.90;;;;;;6268557;22;20156;-79
2023/10/08 06:23:29;;;;;;;2.90;2.70;;;10.30;99.90;;;;;;6255393;23;20184;-82
2023/10/08 06:25:58;;;;;;;0.32;0.30;;;;;;;;;;6226634;23;20629;-86
2023/10/08 06:28:26;;;;;;;1.30;1.30;;;10.40;99.90;;;;;;6227709;23;20186;-86
2023/10/08 06:30:56;;;;;;;0.65;0.65;;;10.40;99.90;;;;;;6251533;23;20180;-84
2023/10/08 06:33:30;;;;;;;4.32;2.50;;;10.40;99.90;;;;;;6226387;23;20207;-83
2023/10/08 06:36:13;;;;;;;1.15;1.15;;;10.20;99.90;;;;;;6251975;23;20163;-81
2023/10/08 06:38:48;;;;;;;0.40;0.40;;;10.20;99.90;;;;;;6224720;23;20491;-82
2023/10/08 06:41:19;;;;;;;0.47;0.47;;;10.50;99.90;;;;;;6252035;23;20419;-82
2023/10/08 06:44:14;;;;;;;2.70;2.40;;;;;;;;;;6252075;23;20190;-82
2023/10/08 06:46:42;;;;;;;0.40;0.40;;;;;;;;;;6250789;23;20191;-82
2023/10/08 06:49:11;;;;;;;0.50;0.50;;;10.50;99.90;;;;;;6251766;23;20530;-83
2023/10/08 06:51:43;;;;;;;1.08;1.08;;;;;;;;;;6252555;23;20231;-82
2023/10/08 06:54:13;;;;;;;0.75;0.75;;;10.40;99.90;;;;;;6251585;23;20263;-82
2023/10/08 06:56:46;;;;;;;1.50;1.40;;;;;;;;;;6253142;23;20187;-82
2023/10/08 06:59:14;;;;;;;0.50;0.50;;;10.60;99.90;;;;;;6252486;23;20160;-85
2023/10/08 07:01:45;;;;;;;1.70;0.85;;;;;;;;;;6251608;23;20184;-82
2023/10/08 07:04:13;;;;;;;0.40;0.40;;;;;;;;;;6252754;23;20206;-80
2023/10/08 07:06:42;;;;;;;0.40;0.40;;;10.50;99.90;;;;;;6252356;23;20380;-81
2023/10/08 07:09:29;;;;;;;1.40;1.00;;;10.50;99.90;;;;;;6226422;23;20582;-81
2023/10/08 07:11:57;;;;;;;1.33;1.33;;;;;;;;;;6249992;23;20183;-81
2023/10/08 07:14:28;;;;;;;0.50;0.50;;;10.90;99.90;;;;;;6252011;23;20681;-82
2023/10/08 07:17:00;;;;;;;0.85;0.85;;;11.10;99.90;;;;;;6251148;23;20191;-82
2023/10/08 07:19:37;;;;;;;1.10;1.08;;;11.50;99.90;;;;;;6250932;23;20164;-82
2023/10/08 07:22:17;;;;;;;0.95;0.95;;;12.00;99.90;;;;;;6226628;23;20191;-81
2023/10/08 07:24:50;;;;;;;0.60;0.60;;;;;;;;;;6225860;23;20174;-79
2023/10/08 07:27:21;;;;;;;0.50;0.50;;;12.80;99.90;;;;;;6252533;23;20199;-81
2023/10/08 07:29:49;;;;;;;0.50;0.50;;;;;;;;;;6250576;23;20168;-82
2023/10/08 07:32:18;;;;;;;1.13;1.13;;;;;;;;;;6251819;23;20246;-80
2023/10/08 07:34:46;;;;;;;1.95;1.88;;;;;;;;;;6250888;23;20168;-81
2023/10/08 07:37:14;;;;;;;0.60;0.60;;;11.80;99.90;;;;;;6252536;23;20499;-81
2023/10/08 07:39:47;;;;;;;0.70;0.70;;;;;;;;;;6254691;23;20491;-82
2023/10/08 07:42:14;;;;;;;0.60;0.60;;;;;;;;;;6255052;23;20160;-81
2023/10/08 07:44:41;;;;;;;0.70;0.70;;;13.60;99.90;;;;;;6254012;23;20420;-83
2023/10/08 07:47:11;;;;;;;0.80;0.80;;;13.90;99.90;;;;;;6254305;23;20416;-81
2023/10/08 07:49:40;;;;;;;0.70;0.70;;;12.70;99.90;;;;;;6231069;23;20384;-81
2023/10/08 07:52:07;;;;;;;0.83;0.83;;;11.80;99.90;;;;;;6232456;23;20371;-82
2023/10/08 07:54:34;;;;;;;0.60;0.60;;;;;;;;;;6256049;23;20417;-82
2023/10/08 07:57:08;;;;;;;2.08;1.98;;;10.70;99.90;;;;;;6257601;23;20633;-81
2023/10/08 07:59:38;;;;;;;1.73;1.70;;;11.90;99.90;;;;;;6259754;23;20202;-81
2023/10/08 08:02:09;;;;;;;0.60;0.60;;;12.40;99.90;;;;;;6253937;23;20187;-84
2023/10/08 08:04:42;;;;;;;0.60;0.60;;;13.50;99.90;;;;;;6230344;23;20183;-81
2023/10/08 08:07:15;;;;;;;0.70;0.70;;;;;;;;;;6257611;23;20451;-78
2023/10/08 08:09:59;;;;;;;0.83;0.83;;;14.00;99.90;;;;;;6272212;22;20460;-81
2023/10/08 08:12:28;;;;;;;0.60;0.60;;;14.10;99.90;;;;;;6254658;23;20386;-87
2023/10/08 08:14:56;;;;;;;1.27;1.17;;;;;;;;;;6253793;23;20352;-80
2023/10/08 08:17:23;;;;;;;0.77;0.77;;;;;;;;;;6251941;23;20397;-83
2023/10/08 08:19:52;;;;;;;5.70;2.13;;;;;;;;;;6251269;23;20417;-88
2023/10/08 08:22:30;;;;;;;0.70;0.70;;;13.10;99.90;;;;;;6253001;23;20478;-88
2023/10/08 08:25:26;;;;;;;0.60;0.60;;;;;;;;;;6252633;23;20373;-79
2023/10/08 08:27:55;;;;;;;0.60;0.60;;;13.50;99.90;;;;;;6252876;23;20447;-77
2023/10/08 08:30:26;;;;;;;0.60;0.60;;;13.60;99.90;;;;;;6252630;23;20900;-81
2023/10/08 08:32:55;;;;;;;0.63;0.63;;;13.80;99.90;;;;;;6250114;23;20356;-80
2023/10/08 08:35:24;;;;;;;0.60;0.60;;;13.70;99.90;;;;;;6250092;23;20364;-83
2023/10/08 08:37:51;;;;;;;0.60;0.60;;;;;;;;;;6250405;23;20384;-82
2023/10/08 08:40:19;;;;;;;0.80;0.80;;;13.80;99.90;;;;;;6251574;23;20429;-83
2023/10/08 08:42:49;;;;;;;0.70;0.70;;;10.40;99.90;;;;;;6251395;23;20461;-85
2023/10/08 08:45:20;;;;;;;0.70;0.70;;;14.30;99.90;;;;;;6251929;23;20451;-84
2023/10/08 08:47:47;;;;;;;0.90;0.90;;;;;;;;;;6250070;23;20652;-84
2023/10/08 08:50:17;;;;;;;0.73;0.73;;;;;;;;;;6258130;23;20383;-78
2023/10/08 08:52:45;;;;;;;0.70;0.70;;;;;;;;;;6264247;23;20459;-80
2023/10/08 08:55:17;;;;;;;0.80;0.80;;;;;;;;;;6262890;23;20391;-81
2023/10/08 08:57:47;;;;;;;0.70;0.70;;;12.50;99.90;;;;;;6256460;23;20432;-83
2023/10/08 09:00:17;;;;;;;0.70;0.70;;;12.70;99.90;;;;;;6252970;23;20364;-80
2023/10/08 09:02:47;;;;;;;0.70;0.70;;;12.60;99.90;;;;;;6251210;23;20429;-82
2023/10/08 09:05:25;;;;;;;0.70;0.70;;;;;;;;;;6252448;23;20383;-83
2023/10/08 09:08:03;;;;;;;0.60;0.60;;;12.50;99.90;;;;;;6251396;23;20796;-82
2023/10/08 09:10:36;;;;;;;1.80;1.70;;;12.40;99.90;;;;;;6251717;23;20393;-85
2023/10/08 09:13:07;;;;;;;0.70;0.70;;;;;;;;;;6250695;23;20557;-83
2023/10/08 09:15:34;;;;;;;0.70;0.70;;;12.80;99.90;;;;;;6251705;23;20210;-82
2023/10/08 09:18:04;;;;;;;0.70;0.70;;;12.60;99.90;;;;;;6224557;23;20160;-84
2023/10/08 09:20:32;;;;;;;0.70;0.70;;;;;;;;;;6252167;23;20184;-84
2023/10/08 09:23:13;;;;;;;0.70;0.70;;;12.00;99.90;;;;;;6251357;23;20183;-83
2023/10/08 09:25:41;;;;;;;0.70;0.70;;;12.30;99.90;;;;;;6251532;23;20191;-82
2023/10/08 09:28:08;;;;;;;0.60;0.60;;;;;;;;;;6253307;23;20229;-81
2023/10/08 09:30:39;;;;;;;0.60;0.60;;;11.80;99.90;;;;;;6252231;23;20194;-79
2023/10/08 09:33:09;;;;;;;0.60;0.60;;;12.10;99.90;;;;;;6253761;23;20464;-85
2023/10/08 09:35:36;;;;;;;0.60;0.60;;;12.20;99.90;;;;;;6254888;23;20176;-80
2023/10/08 09:38:05;;;;;;;0.70;0.70;;;12.10;99.90;;;;;;6260382;23;20211;-80
2023/10/08 09:40:32;;;;;;;0.60;0.60;;;12.10;99.90;;;;;;6228996;23;20175;-79
2023/10/08 09:43:00;;;;;;;0.60;0.60;;;;;;;;;;6259432;23;20213;-81
2023/10/08 09:45:28;;;;;;;0.60;0.60;;;11.80;99.90;;;;;;6257584;23;20183;-79
2023/10/08 09:47:55;;;;;;;0.60;0.60;;;;;;;;;;6253307;23;20203;-81
2023/10/08 09:50:35;;;;;;;0.60;0.60;;;12.20;99.90;;;;;;6251935;23;20536;-84
2023/10/08 09:53:17;;;;;;;0.60;0.60;;;13.20;99.90;;;;;;6252370;23;20167;-84
2023/10/08 09:55:49;;;;;;;0.98;0.98;;;12.40;99.90;;;;;;6250449;23;20164;-81
2023/10/08 09:58:17;;;;;;;1.08;1.08;;;12.40;99.90;;;;;;6249759;23;20234;-83
2023/10/08 10:00:48;;;;;;;0.60;0.60;;;12.10;99.90;;;;;;6250384;23;20184;-82
2023/10/08 10:03:18;;;;;;;0.80;0.80;;;12.20;99.90;;;;;;6225195;23;20190;-78
2023/10/08 10:05:48;;;;;;;0.60;0.60;;;12.40;99.90;;;;;;6251518;23;20313;-82
2023/10/08 10:08:15;;;;;;;0.88;0.88;;;12.00;99.90;;;;;;6252212;23;20183;-83
2023/10/08 10:10:47;;;;;;;0.95;0.95;;;12.10;99.90;;;;;;6251583;23;20239;-83
2023/10/08 10:13:17;;;;;;;0.63;0.63;;;12.00;99.90;;;;;;6252397;23;20230;-86
2023/10/08 10:15:44;;;;;;;0.60;0.60;;;12.10;99.90;;;;;;6251978;23;20191;-82
2023/10/08 10:18:29;;;;;;;0.60;0.60;;;12.30;99.90;;;;;;6225872;23;20198;-86
2023/10/08 10:21:12;;;;;;;0.60;0.60;;;12.40;99.90;;;;;;6258850;23;20164;-80
2023/10/08 10:23:42;;;;;;;0.60;0.60;;;12.60;99.90;;;;;;6244680;22;20151;-80
2023/10/08 10:26:33;;;;;;;0.60;0.60;;;12.70;99.90;;;;;;6257599;22;20214;-83
2023/10/08 10:29:16;;;;;;;0.60;0.60;;;12.70;99.90;;;;;;6227326;23;20235;-83
2023/10/08 10:31:46;;;;;;;0.60;0.60;;;12.30;99.90;;;;;;6254602;23;20218;-79
2023/10/08 10:34:18;;;;;;;0.90;0.90;;;12.00;99.90;;;;;;6255018;23;20190;-79
2023/10/08 10:36:49;;;;;;;0.50;0.50;;;12.20;99.90;;;;;;6227916;23;20305;-87
2023/10/08 10:39:25;;;;;;;0.70;0.70;;;12.70;99.80;;;;;;6254363;23;20172;-84
2023/10/08 10:41:57;;;;;;;1.95;1.90;;;12.20;99.30;;;;;;6252520;23;20159;-81
2023/10/08 10:44:24;;;;;;;0.60;0.60;;;12.10;99.70;;;;;;6230658;23;20168;-83
2023/10/08 10:47:22;;;;;;;0.70;0.70;;;12.20;99.30;;;;;;6247330;23;20179;-81
2023/10/08 10:49:49;;;;;;;0.60;0.60;;;12.40;99.90;;;;;;6271998;22;20175;-81
2023/10/08 10:52:26;;;;;;;0.60;0.60;;;12.30;99.90;;;;;;6271095;22;20163;-80
2023/10/08 10:55:00;;;;;;;0.60;0.60;;;12.30;99.90;;;;;;6264550;22;20215;-82
2023/10/08 10:57:34;;;;;;;0.73;0.73;;;12.30;97.90;;;;;;6265750;23;20395;-80
2023/10/08 11:00:47;;;;;;;0.60;0.60;;;12.50;98.30;;;;;;6257387;23;20366;-78
2023/10/08 11:02:56;;;;;;;0.77;0.77;;;12.50;98.50;;;;;;6252011;23;20195;-81
2023/10/08 11:05:28;;;;;;;0.60;0.60;;;12.30;99.00;;;;;;6252491;23;20176;-80
2023/10/08 11:08:05;;;;;;;0.50;0.50;;;12.30;99.90;;;;;;6249504;23;20226;-84
2023/10/08 11:10:33;;;;;;;0.60;0.60;;;12.20;99.90;;;;;;6250412;23;20163;-79
2023/10/08 11:13:01;;;;;;;0.60;0.60;;;12.40;98.00;;;;;;6249700;23;20416;-82
2023/10/08 11:15:40;;;;;;;0.60;0.60;;;12.40;97.40;;;;;;6223485;23;20211;-83
2023/10/08 11:18:11;;;;;;;0.50;0.50;;;12.70;98.50;;;;;;6224038;23;20724;-85
2023/10/08 11:20:46;;;;;;;1.00;1.00;;;12.90;97.90;;;;;;6251705;23;20171;-83
2023/10/08 11:23:36;;;;;;;1.13;1.02;;;12.80;98.20;;;;;;6252258;23;20167;-82
2023/10/08 11:26:06;;;;;;;0.60;0.60;;;12.80;96.40;;;;;;6250580;23;20168;-82
2023/10/08 11:28:35;;;;;;;0.60;0.60;;;12.70;98.30;;;;;;6224498;23;20188;-81
2023/10/08 11:31:07;;;;;;;0.50;0.50;;;13.00;98.50;;;;;;6250537;23;20227;-81
2023/10/08 11:33:46;;;;;;;0.60;0.60;;;13.00;98.10;;;;;;6251464;23;20164;-87
2023/10/08 11:36:22;;;;;;;0.60;0.60;;;12.90;97.50;;;;;;6250205;23;20172;-84
2023/10/08 11:38:50;;;;;;;0.60;0.60;;;12.90;96.90;;;;;;6251072;23;20210;-81
2023/10/08 11:41:20;;;;;;;0.60;0.60;;;12.70;94.50;;;;;;6250172;23;20217;-83
2023/10/08 11:43:56;;;;;;;0.90;0.90;;;12.80;95.70;;;;;;6251269;23;20184;-80
2023/10/08 11:46:32;;;;;;;0.60;0.60;;;12.70;95.60;;;;;;6251480;23;20219;-83
2023/10/08 11:49:04;;;;;;;0.60;0.60;;;12.80;95.40;;;;;;6250558;23;20222;-83
2023/10/08 11:51:33;;;;;;;0.60;0.60;;;12.80;97.50;;;;;;6251555;23;20227;-79
2023/10/08 11:54:01;;;;;;;0.60;0.60;;;12.80;94.70;;;;;;6251203;23;20190;-83
2023/10/08 11:56:33;;;;;;;0.60;0.60;;;12.60;94.60;;;;;;6226384;23;20214;-84
2023/10/08 11:59:08;;;;;;;0.70;0.70;;;12.60;93.60;;;;;;6252856;23;20195;-82
2023/10/08 12:01:37;;;;;;;0.60;0.60;;;12.70;94.10;;;;;;6253314;23;20226;-86
2023/10/08 12:04:04;;;;;;;0.50;0.50;;;13.00;93.80;;;;;;6225414;23;20198;-83
2023/10/08 12:06:33;;;;;;;0.60;0.60;;;12.60;93.20;;;;;;6251793;23;20215;-82
2023/10/08 12:09:00;;;;;;;0.90;0.90;;;12.30;92.70;;;;;;6253031;23;20183;-84
2023/10/08 12:11:31;;;;;;;0.60;0.60;;;12.40;93.10;;;;;;6254653;23;20183;-80
2023/10/08 12:14:00;;;;;;;0.60;0.60;;;12.60;94.30;;;;;;6246069;22;20179;-83
2023/10/08 12:16:35;;;;;;;0.70;0.70;;;12.40;93.80;;;;;;6271827;22;20164;-80
2023/10/08 12:19:15;;;;;;;0.60;0.60;;;12.30;94.90;;;;;;6264595;23;20175;-82
2023/10/08 12:21:46;;;;;;;0.60;0.60;;;12.20;95.40;;;;;;6251930;23;20399;-81
2023/10/08 12:24:13;;;;;;;0.60;0.60;;;12.30;94.70;;;;;;6250099;23;20172;-82
2023/10/08 12:26:45;;;;;;;0.70;0.70;;;12.40;95.90;;;;;;6250137;23;20249;-81
2023/10/08 12:29:14;;;;;;;0.80;0.80;;;12.70;96.10;;;;;;6224715;23;20229;-81
2023/10/08 12:31:41;;;;;;;1.02;1.02;;;12.80;95.60;;;;;;6255618;23;20206;-81
2023/10/08 12:34:11;;;;;;;0.80;0.80;;;12.80;93.90;;;;;;6254820;23;20191;-82
2023/10/08 12:36:39;;;;;;;0.60;0.60;;;12.80;94.80;;;;;;6256676;23;20183;-83
2023/10/08 12:39:09;;;;;;;0.52;0.52;;;12.80;93.80;;;;;;6255072;23;20191;-81
2023/10/08 12:41:38;;;;;;;0.60;0.60;;;12.70;95.20;;;;;;6256811;23;20183;-82
2023/10/08 12:44:08;;;;;;;0.50;0.50;;;12.70;94.20;;;;;;6232398;23;20495;-83
2023/10/08 12:46:36;;;;;;;0.85;0.85;;;12.80;94.30;;;;;;6232104;23;20200;-80
2023/10/08 12:49:04;;;;;;;0.50;0.50;;;12.90;94.50;;;;;;6256737;23;20170;-80
2023/10/08 12:51:35;;;;;;;0.50;0.50;;;13.10;94.80;;;;;;6255150;23;20183;-82
2023/10/08 12:54:10;;;;;;;0.60;0.60;;;13.00;94.80;;;;;;6252056;23;20476;-82
2023/10/08 12:56:44;;;;;;;0.60;0.60;;;13.00;94.40;;;;;;6253186;23;20187;-84
2023/10/08 12:59:20;;;;;;;0.60;0.60;;;13.10;95.30;;;;;;6225541;23;20199;-82
2023/10/08 13:01:51;;;;;;;1.17;1.17;;;13.00;94.50;;;;;;6250937;23;20167;-81
2023/10/08 13:04:26;;;;;;;0.55;0.55;;;13.00;93.90;;;;;;6227755;23;20191;-78
2023/10/08 13:07:01;;;;;;;0.60;0.60;;;12.80;94.10;;;;;;6258500;23;20242;-82
2023/10/08 13:09:36;;;;;;;0.52;0.52;;;12.40;93.00;;;;;;6226959;23;20197;-81
2023/10/08 13:12:04;;;;;;;0.60;0.60;;;12.60;93.90;;;;;;6248896;23;20168;-85
2023/10/08 13:14:34;;;;;;;0.57;0.57;;;12.50;93.80;;;;;;6249624;23;20558;-80
2023/10/08 13:17:02;;;;;;;0.50;0.50;;;12.60;94.30;;;;;;6251777;23;20172;-82
2023/10/08 13:19:33;;;;;;;0.60;0.60;;;12.60;94.10;;;;;;6233206;23;20175;-82
2023/10/08 13:22:01;;;;;;;0.60;0.60;;;12.80;94.20;;;;;;6260922;23;20239;-81
2023/10/08 13:24:29;;;;;;;0.60;0.60;;;12.80;94.60;;;;;;6256985;23;20183;-83
2023/10/08 13:26:58;;;;;;;0.60;0.60;;;12.80;94.80;;;;;;6224252;23;20763;-83
2023/10/08 13:29:32;;;;;;;0.60;0.60;;;12.80;95.10;;;;;;6223070;23;20484;-81
2023/10/08 13:32:00;;;;;;;0.65;0.65;;;12.80;95.20;;;;;;6249811;23;20487;-81
2023/10/08 13:34:27;;;;;;;0.50;0.50;;;12.60;95.00;;;;;;6250108;23;20176;-80
2023/10/08 13:36:56;;;;;;;0.50;0.50;;;12.40;95.40;;;;;;6250626;23;20524;-78
2023/10/08 13:39:23;;;;;;;0.50;0.50;;;12.30;95.30;;;;;;6224437;23;20179;-79
2023/10/08 13:41:52;;;;;;;0.75;0.75;;;12.20;96.20;;;;;;6251896;23;20179;-82
2023/10/08 13:44:28;;;;;;;0.60;0.60;;;12.30;95.00;;;;;;6252646;23;20176;-83
2023/10/08 13:46:59;;;;;;;0.60;0.60;;;12.40;94.00;;;;;;6252281;23;20407;-84
2023/10/08 13:49:26;;;;;;;0.60;0.60;;;12.40;94.00;;;;;;6251764;23;20241;-82
2023/10/08 13:51:56;;;;;;;0.60;0.60;;;12.30;94.90;;;;;;6225530;23;20788;-82
2023/10/08 13:54:32;;;;;;;0.60;0.60;;;12.20;95.70;;;;;;6253126;23;20207;-82
2023/10/08 13:57:01;;;;;;;0.50;0.50;;;12.20;95.10;;;;;;6251804;23;20175;-79
2023/10/08 13:59:33;;;;;;;4.63;1.35;;;12.30;94.10;;;;;;6251625;23;20180;-78
2023/10/08 14:02:09;;;;;;;0.60;0.60;;;12.50;94.90;;;;;;6251042;23;20376;-84
2023/10/08 14:04:39;;;;;;;0.60;0.60;;;12.40;94.10;;;;;;6249924;23;20202;-82
2023/10/08 14:07:07;;;;;;;0.75;0.75;;;12.20;94.80;;;;;;6250620;23;20638;-82
2023/10/08 14:09:37;;;;;;;0.60;0.60;;;12.40;94.00;;;;;;6251740;23;20184;-79
2023/10/08 14:12:07;;;;;;;0.55;0.55;;;12.40;93.70;;;;;;6252296;23;20175;-81
2023/10/08 14:14:35;;;;;;;0.50;0.50;;;;;;;;;;6242421;23;20230;-80
2023/10/08 14:17:05;;;;;;;0.60;0.60;;;12.40;93.50;;;;;;6267087;22;20180;-83
2023/10/08 14:19:46;;;;;;;0.60;0.60;;;12.40;94.40;;;;;;6252851;23;20176;-78
2023/10/08 14:22:14;;;;;;;0.50;0.50;;;;;;;;;;6226857;23;20174;-78
2023/10/08 14:24:45;;;;;;;0.60;0.60;;;;;;;;;;6252448;23;20171;-80
2023/10/08 14:27:18;;;;;;;0.60;0.60;;;12.20;92.60;;;;;;6227383;23;20187;-83
2023/10/08 14:29:50;;;;;;;0.60;0.60;;;;;;;;;;6253780;23;20175;-81
2023/10/08 14:32:17;;;;;;;0.57;0.57;;;12.40;91.80;;;;;;6254124;23;20172;-83
2023/10/08 14:42:59;;;;;;;0.60;0.60;;;12.30;94.70;;;;;;6264140;22;20172;-82
2023/10/08 14:45:35;;;;;;;0.50;0.50;;;12.50;94.60;;;;;;6227929;23;20353;-82